createdAt,value
2017-04-18T00:00:27.572Z,1015.46
2017-04-18T00:01:08.109Z,1015.45
2017-04-18T00:01:48.652Z,1015.45
2017-04-18T00:02:29.201Z,1015.41
2017-04-18T00:03:09.739Z,1015.42
2017-04-18T00:03:50.272Z,1015.4
2017-04-18T00:04:30.807Z,1015.42
2017-04-18T00:05:11.354Z,1015.42
2017-04-18T00:05:51.964Z,1015.41
2017-04-18T00:06:32.493Z,1015.45
2017-04-18T00:07:13.039Z,1015.44
2017-04-18T00:07:53.559Z,1015.41
2017-04-18T00:08:34.097Z,1015.44
2017-04-18T00:09:14.629Z,1015.49
2017-04-18T00:09:55.170Z,1015.47
2017-04-18T00:10:35.715Z,1015.49
2017-04-18T00:11:16.246Z,1015.48
2017-04-18T00:11:56.785Z,1015.5
2017-04-18T00:12:37.318Z,1015.5
2017-04-18T00:13:17.847Z,1015.5
2017-04-18T00:13:58.369Z,1015.54
2017-04-18T00:14:38.896Z,1015.49
2017-04-18T00:15:19.436Z,1015.52
2017-04-18T00:15:59.991Z,1015.48
2017-04-18T00:16:40.539Z,1015.45
2017-04-18T00:17:21.058Z,1015.45
2017-04-18T00:18:01.618Z,1015.42
2017-04-18T00:18:42.153Z,1015.46
2017-04-18T00:19:22.689Z,1015.44
2017-04-18T00:20:03.229Z,1015.41
2017-04-18T00:20:43.780Z,1015.44
2017-04-18T00:21:24.333Z,1015.49
2017-04-18T00:22:04.880Z,1015.52
2017-04-18T00:22:45.431Z,1015.51
2017-04-18T00:23:25.982Z,1015.52
2017-04-18T00:24:06.537Z,1015.49
2017-04-18T00:24:47.072Z,1015.47
2017-04-18T00:25:27.631Z,1015.48
2017-04-18T00:26:08.183Z,1015.44
2017-04-18T00:26:48.713Z,1015.44
2017-04-18T00:27:29.249Z,1015.43
2017-04-18T00:28:09.814Z,1015.48
2017-04-18T00:28:50.354Z,1015.43
2017-04-18T00:29:30.905Z,1015.45
2017-04-18T00:30:11.462Z,1015.46
2017-04-18T00:30:52.009Z,1015.43
2017-04-18T00:31:32.563Z,1015.44
2017-04-18T00:32:13.074Z,1015.47
2017-04-18T00:32:53.609Z,1015.5
2017-04-18T00:33:34.144Z,1015.48
2017-04-18T00:34:14.689Z,1015.44
2017-04-18T00:34:55.240Z,1015.46
2017-04-18T00:35:35.791Z,1015.47
2017-04-18T00:36:16.345Z,1015.48
2017-04-18T00:36:56.892Z,1015.45
2017-04-18T00:37:37.465Z,1015.52
2017-04-18T00:38:17.996Z,1015.5
2017-04-18T00:38:58.545Z,1015.5
2017-04-18T00:39:39.097Z,1015.52
2017-04-18T00:40:19.653Z,1015.54
2017-04-18T00:41:00.199Z,1015.53
2017-04-18T00:41:40.731Z,1015.53
2017-04-18T00:42:21.279Z,1015.52
2017-04-18T00:43:01.840Z,1015.53
2017-04-18T00:43:42.381Z,1015.54
2017-04-18T00:44:22.927Z,1015.57
2017-04-18T00:45:03.470Z,1015.53
2017-04-18T00:45:44.022Z,1015.56
2017-04-18T00:46:24.553Z,1015.51
2017-04-18T00:47:05.081Z,1015.55
2017-04-18T00:47:45.614Z,1015.51
2017-04-18T00:48:26.156Z,1015.56
2017-04-18T00:49:06.686Z,1015.53
2017-04-18T00:49:47.227Z,1015.51
2017-04-18T00:50:27.767Z,1015.54
2017-04-18T00:51:08.308Z,1015.51
2017-04-18T00:51:48.839Z,1015.53
2017-04-18T00:52:29.370Z,1015.53
2017-04-18T00:53:09.912Z,1015.54
2017-04-18T00:53:50.440Z,1015.53
2017-04-18T00:54:31.015Z,1015.54
2017-04-18T00:55:11.575Z,1015.51
2017-04-18T00:55:52.113Z,1015.55
2017-04-18T00:56:32.645Z,1015.53
2017-04-18T00:57:13.179Z,1015.54
2017-04-18T00:57:53.713Z,1015.49
2017-04-18T00:58:34.290Z,1015.51
2017-04-18T00:59:14.836Z,1015.49
2017-04-18T00:59:55.366Z,1015.49
2017-04-18T01:00:35.890Z,1015.54
2017-04-18T01:01:16.428Z,1015.53
2017-04-18T01:01:56.988Z,1015.54
2017-04-18T01:02:37.522Z,1015.58
2017-04-18T01:03:18.048Z,1015.58
2017-04-18T01:03:58.581Z,1015.59
2017-04-18T01:04:39.129Z,1015.6
2017-04-18T01:05:19.659Z,1015.58
2017-04-18T01:06:00.187Z,1015.59
2017-04-18T01:06:40.726Z,1015.59
2017-04-18T01:07:21.268Z,1015.58
2017-04-18T01:08:01.802Z,1015.61
2017-04-18T01:08:42.339Z,1015.59
2017-04-18T01:09:22.864Z,1015.58
2017-04-18T01:10:03.407Z,1015.59
2017-04-18T01:10:43.934Z,1015.59
2017-04-18T01:11:24.471Z,1015.59
2017-04-18T01:12:05.001Z,1015.57
2017-04-18T01:12:45.535Z,1015.6
2017-04-18T01:13:26.073Z,1015.54
2017-04-18T01:14:06.613Z,1015.6
2017-04-18T01:14:47.145Z,1015.57
2017-04-18T01:15:27.683Z,1015.6
2017-04-18T01:16:08.229Z,1015.61
2017-04-18T01:16:48.759Z,1015.62
2017-04-18T01:17:29.292Z,1015.58
2017-04-18T01:18:09.830Z,1015.64
2017-04-18T01:18:50.367Z,1015.65
2017-04-18T01:19:30.904Z,1015.66
2017-04-18T01:20:11.447Z,1015.68
2017-04-18T01:20:51.977Z,1015.68
2017-04-18T01:21:32.514Z,1015.68
2017-04-18T01:22:13.057Z,1015.69
2017-04-18T01:22:53.589Z,1015.69
2017-04-18T01:23:34.129Z,1015.72
2017-04-18T01:24:14.682Z,1015.73
2017-04-18T01:24:55.219Z,1015.7
2017-04-18T01:25:35.749Z,1015.74
2017-04-18T01:26:16.292Z,1015.74
2017-04-18T01:26:56.837Z,1015.72
2017-04-18T01:27:37.384Z,1015.76
2017-04-18T01:28:17.919Z,1015.76
2017-04-18T01:28:58.470Z,1015.77
2017-04-18T01:29:39.004Z,1015.75
2017-04-18T01:30:19.536Z,1015.77
2017-04-18T01:31:00.079Z,1015.77
2017-04-18T01:31:40.660Z,1015.74
2017-04-18T01:32:21.179Z,1015.75
2017-04-18T01:33:01.717Z,1015.74
2017-04-18T01:33:42.249Z,1015.77
2017-04-18T01:34:22.784Z,1015.76
2017-04-18T01:35:03.323Z,1015.77
2017-04-18T01:35:43.859Z,1015.83
2017-04-18T01:36:24.396Z,1015.79
2017-04-18T01:37:04.931Z,1015.78
2017-04-18T01:37:45.493Z,1015.78
2017-04-18T01:38:26.044Z,1015.84
2017-04-18T01:39:06.586Z,1015.86
2017-04-18T01:39:47.133Z,1015.8
2017-04-18T01:40:27.663Z,1015.78
2017-04-18T01:41:08.212Z,1015.79
2017-04-18T01:41:48.751Z,1015.77
2017-04-18T01:42:29.287Z,1015.73
2017-04-18T01:43:09.827Z,1015.75
2017-04-18T01:43:50.369Z,1015.78
2017-04-18T01:44:30.900Z,1015.8
2017-04-18T01:45:11.431Z,1015.75
2017-04-18T01:45:51.968Z,1015.82
2017-04-18T01:46:32.516Z,1015.79
2017-04-18T01:47:13.057Z,1015.77
2017-04-18T01:47:53.587Z,1015.8
2017-04-18T01:48:34.108Z,1015.77
2017-04-18T01:49:14.641Z,1015.74
2017-04-18T01:49:55.175Z,1015.74
2017-04-18T01:50:35.690Z,1015.77
2017-04-18T01:51:16.205Z,1015.76
2017-04-18T01:51:56.751Z,1015.73
2017-04-18T01:52:37.270Z,1015.74
2017-04-18T01:53:17.823Z,1015.73
2017-04-18T01:53:58.359Z,1015.75
2017-04-18T01:54:38.892Z,1015.71
2017-04-18T01:55:19.409Z,1015.77
2017-04-18T01:55:59.934Z,1015.74
2017-04-18T01:56:40.474Z,1015.71
2017-04-18T01:57:20.988Z,1015.69
2017-04-18T01:58:01.520Z,1015.71
2017-04-18T01:58:42.049Z,1015.74
2017-04-18T01:59:22.584Z,1015.74
2017-04-18T02:00:03.099Z,1015.71
2017-04-18T02:00:43.621Z,1015.7
2017-04-18T02:01:24.149Z,1015.7
2017-04-18T02:02:04.685Z,1015.74
2017-04-18T02:02:45.221Z,1015.72
2017-04-18T02:03:25.727Z,1015.69
2017-04-18T02:04:06.273Z,1015.67
2017-04-18T02:04:46.783Z,1015.72
2017-04-18T02:05:27.298Z,1015.73
2017-04-18T02:06:07.822Z,1015.7
2017-04-18T02:06:48.347Z,1015.7
2017-04-18T02:07:28.878Z,1015.73
2017-04-18T02:08:09.379Z,1015.75
2017-04-18T02:08:49.906Z,1015.77
2017-04-18T02:09:30.438Z,1015.74
2017-04-18T02:10:10.997Z,1015.77
2017-04-18T02:10:51.507Z,1015.75
2017-04-18T02:11:32.026Z,1015.77
2017-04-18T02:12:12.549Z,1015.74
2017-04-18T02:12:53.082Z,1015.74
2017-04-18T02:13:33.617Z,1015.73
2017-04-18T02:14:14.143Z,1015.72
2017-04-18T02:14:54.676Z,1015.75
2017-04-18T02:15:35.202Z,1015.74
2017-04-18T02:16:15.732Z,1015.72
2017-04-18T02:16:56.250Z,1015.69
2017-04-18T02:17:36.777Z,1015.72
2017-04-18T02:18:17.297Z,1015.72
2017-04-18T02:18:57.814Z,1015.67
2017-04-18T02:19:38.398Z,1015.71
2017-04-18T02:20:18.935Z,1015.73
2017-04-18T02:20:59.477Z,1015.68
2017-04-18T02:21:40.003Z,1015.71
2017-04-18T02:22:20.534Z,1015.7
2017-04-18T02:23:01.082Z,1015.69
2017-04-18T02:23:41.589Z,1015.74
2017-04-18T02:24:22.135Z,1015.7
2017-04-18T02:25:02.652Z,1015.68
2017-04-18T02:25:43.164Z,1015.69
2017-04-18T02:26:23.678Z,1015.74
2017-04-18T02:27:04.214Z,1015.71
2017-04-18T02:27:44.735Z,1015.76
2017-04-18T02:28:25.233Z,1015.77
2017-04-18T02:29:05.792Z,1015.76
2017-04-18T02:29:46.283Z,1015.76
2017-04-18T02:30:26.812Z,1015.77
2017-04-18T02:31:07.356Z,1015.78
2017-04-18T02:31:47.867Z,1015.8
2017-04-18T02:32:28.377Z,1015.81
2017-04-18T02:33:08.914Z,1015.82
2017-04-18T02:33:49.446Z,1015.8
2017-04-18T02:34:29.971Z,1015.86
2017-04-18T02:35:10.507Z,1015.81
2017-04-18T02:35:51.030Z,1015.85
2017-04-18T02:36:31.568Z,1015.82
2017-04-18T02:37:12.095Z,1015.82
2017-04-18T02:37:52.629Z,1015.81
2017-04-18T02:38:33.156Z,1015.82
2017-04-18T02:39:13.674Z,1015.83
2017-04-18T02:39:54.205Z,1015.82
2017-04-18T02:40:34.729Z,1015.84
2017-04-18T02:41:15.262Z,1015.82
2017-04-18T02:41:55.777Z,1015.82
2017-04-18T02:42:36.293Z,1015.82
2017-04-18T02:43:16.835Z,1015.85
2017-04-18T02:43:57.327Z,1015.83
2017-04-18T02:44:37.848Z,1015.87
2017-04-18T02:45:18.373Z,1015.87
2017-04-18T02:45:58.904Z,1015.89
2017-04-18T02:46:39.442Z,1015.88
2017-04-18T02:47:19.928Z,1015.87
2017-04-18T02:48:00.455Z,1015.89
2017-04-18T02:48:40.986Z,1015.88
2017-04-18T02:49:21.521Z,1015.9
2017-04-18T02:50:02.040Z,1015.87
2017-04-18T02:50:42.572Z,1015.91
2017-04-18T02:51:23.104Z,1015.91
2017-04-18T02:52:03.647Z,1015.9
2017-04-18T02:52:44.149Z,1015.9
2017-04-18T02:53:24.666Z,1015.9
2017-04-18T02:54:05.179Z,1015.94
2017-04-18T02:54:45.702Z,1015.91
2017-04-18T02:55:26.241Z,1015.93
2017-04-18T02:56:06.766Z,1015.91
2017-04-18T02:56:47.285Z,1015.94
2017-04-18T02:57:27.797Z,1015.94
2017-04-18T02:58:08.352Z,1015.93
2017-04-18T02:58:48.858Z,1015.93
2017-04-18T02:59:29.374Z,1015.95
2017-04-18T03:00:09.925Z,1015.94
2017-04-18T03:00:50.455Z,1015.89
2017-04-18T03:01:30.991Z,1015.91
2017-04-18T03:02:11.510Z,1015.94
2017-04-18T03:02:52.039Z,1015.95
2017-04-18T03:03:32.796Z,1015.94
2017-04-18T03:04:13.531Z,1015.95
2017-04-18T03:04:54.261Z,1015.97
2017-04-18T03:05:34.971Z,1016
2017-04-18T03:06:15.511Z,1016
2017-04-18T03:06:56.046Z,1015.98
2017-04-18T03:07:36.589Z,1016.03
2017-04-18T03:08:17.124Z,1016
2017-04-18T03:08:57.687Z,1015.97
2017-04-18T03:09:38.221Z,1015.95
2017-04-18T03:10:18.740Z,1015.99
2017-04-18T03:10:59.262Z,1015.97
2017-04-18T03:11:39.807Z,1016
2017-04-18T03:12:20.351Z,1016.01
2017-04-18T03:13:00.889Z,1016.04
2017-04-18T03:13:41.409Z,1016.06
2017-04-18T03:14:21.935Z,1016.06
2017-04-18T03:15:02.475Z,1016
2017-04-18T03:15:43.004Z,1016.02
2017-04-18T03:16:23.545Z,1016.06
2017-04-18T03:17:04.072Z,1016.08
2017-04-18T03:17:44.600Z,1016.05
2017-04-18T03:18:25.128Z,1016.07
2017-04-18T03:19:05.659Z,1016.1
2017-04-18T03:19:46.186Z,1016.06
2017-04-18T03:20:26.706Z,1016.07
2017-04-18T03:21:07.224Z,1016.02
2017-04-18T03:21:47.764Z,1016.06
2017-04-18T03:22:28.282Z,1016.06
2017-04-18T03:23:08.792Z,1016.06
2017-04-18T03:23:49.358Z,1016.05
2017-04-18T03:24:29.882Z,1016.06
2017-04-18T03:25:10.412Z,1016.08
2017-04-18T03:25:50.933Z,1016.07
2017-04-18T03:26:31.456Z,1016.11
2017-04-18T03:27:12.004Z,1016.09
2017-04-18T03:27:52.548Z,1016.06
2017-04-18T03:28:33.057Z,1016.09
2017-04-18T03:29:13.588Z,1016.08
2017-04-18T03:29:54.109Z,1016.1
2017-04-18T03:30:34.634Z,1016.08
2017-04-18T03:31:15.148Z,1016.09
2017-04-18T03:31:55.687Z,1016.1
2017-04-18T03:32:36.234Z,1016.1
2017-04-18T03:33:16.759Z,1016.1
2017-04-18T03:33:57.287Z,1016.12
2017-04-18T03:34:37.814Z,1016.1
2017-04-18T03:35:18.346Z,1016.09
2017-04-18T03:35:58.866Z,1016.14
2017-04-18T03:36:39.405Z,1016.12
2017-04-18T03:37:19.943Z,1016.16
2017-04-18T03:38:00.464Z,1016.15
2017-04-18T03:38:40.992Z,1016.14
2017-04-18T03:39:21.546Z,1016.19
2017-04-18T03:40:02.062Z,1016.18
2017-04-18T03:40:42.603Z,1016.16
2017-04-18T03:41:23.151Z,1016.15
2017-04-18T03:42:03.675Z,1016.15
2017-04-18T03:42:44.219Z,1016.14
2017-04-18T03:43:24.762Z,1016.19
2017-04-18T03:44:05.291Z,1016.2
2017-04-18T03:44:45.813Z,1016.17
2017-04-18T03:45:26.348Z,1016.2
2017-04-18T03:46:06.883Z,1016.22
2017-04-18T03:46:47.419Z,1016.2
2017-04-18T03:47:27.951Z,1016.22
2017-04-18T03:48:08.498Z,1016.2
2017-04-18T03:48:49.021Z,1016.18
2017-04-18T03:49:29.549Z,1016.21
2017-04-18T03:50:10.083Z,1016.23
2017-04-18T03:50:50.628Z,1016.19
2017-04-18T03:51:31.159Z,1016.24
2017-04-18T03:52:11.683Z,1016.22
2017-04-18T03:52:52.221Z,1016.25
2017-04-18T03:53:32.743Z,1016.26
2017-04-18T03:54:13.275Z,1016.26
2017-04-18T03:54:53.811Z,1016.28
2017-04-18T03:55:34.358Z,1016.26
2017-04-18T03:56:14.891Z,1016.25
2017-04-18T03:56:55.418Z,1016.31
2017-04-18T03:57:35.953Z,1016.25
2017-04-18T03:58:16.487Z,1016.3
2017-04-18T03:58:57.034Z,1016.27
2017-04-18T03:59:37.563Z,1016.25
2017-04-18T04:00:18.102Z,1016.28
2017-04-18T04:00:58.678Z,1016.28
2017-04-18T04:01:39.184Z,1016.27
2017-04-18T04:02:19.713Z,1016.26
2017-04-18T04:03:00.240Z,1016.32
2017-04-18T04:03:40.771Z,1016.29
2017-04-18T04:04:21.280Z,1016.32
2017-04-18T04:05:01.794Z,1016.32
2017-04-18T04:05:42.365Z,1016.28
2017-04-18T04:06:22.877Z,1016.3
2017-04-18T04:07:03.472Z,1016.33
2017-04-18T04:07:44.012Z,1016.35
2017-04-18T04:08:24.570Z,1016.34
2017-04-18T04:09:05.124Z,1016.34
2017-04-18T04:09:45.671Z,1016.36
2017-04-18T04:10:26.229Z,1016.37
2017-04-18T04:11:06.756Z,1016.38
2017-04-18T04:11:47.294Z,1016.35
2017-04-18T04:12:27.870Z,1016.37
2017-04-18T04:13:08.387Z,1016.37
2017-04-18T04:13:48.970Z,1016.38
2017-04-18T04:14:29.544Z,1016.38
2017-04-18T04:15:10.075Z,1016.37
2017-04-18T04:15:50.611Z,1016.38
2017-04-18T04:16:31.152Z,1016.37
2017-04-18T04:17:11.682Z,1016.41
2017-04-18T04:17:52.199Z,1016.41
2017-04-18T04:18:32.731Z,1016.43
2017-04-18T04:19:13.276Z,1016.42
2017-04-18T04:19:53.790Z,1016.45
2017-04-18T04:20:34.337Z,1016.41
2017-04-18T04:21:14.864Z,1016.4
2017-04-18T04:21:55.400Z,1016.43
2017-04-18T04:22:35.908Z,1016.44
2017-04-18T04:23:16.451Z,1016.46
2017-04-18T04:23:56.970Z,1016.45
2017-04-18T04:24:37.501Z,1016.41
2017-04-18T04:25:18.027Z,1016.45
2017-04-18T04:25:58.554Z,1016.46
2017-04-18T04:26:39.083Z,1016.44
2017-04-18T04:27:19.601Z,1016.45
2017-04-18T04:28:00.116Z,1016.45
2017-04-18T04:28:40.644Z,1016.46
2017-04-18T04:29:21.185Z,1016.47
2017-04-18T04:30:01.696Z,1016.53
2017-04-18T04:30:42.230Z,1016.52
2017-04-18T04:31:22.768Z,1016.49
2017-04-18T04:32:03.283Z,1016.5
2017-04-18T04:32:43.799Z,1016.53
2017-04-18T04:33:24.316Z,1016.54
2017-04-18T04:34:04.857Z,1016.54
2017-04-18T04:34:45.393Z,1016.56
2017-04-18T04:35:25.906Z,1016.58
2017-04-18T04:36:06.432Z,1016.56
2017-04-18T04:36:46.963Z,1016.56
2017-04-18T04:37:27.506Z,1016.56
2017-04-18T04:38:08.096Z,1016.56
2017-04-18T04:38:48.639Z,1016.56
2017-04-18T04:39:29.165Z,1016.58
2017-04-18T04:40:09.705Z,1016.59
2017-04-18T04:40:50.242Z,1016.59
2017-04-18T04:41:30.746Z,1016.61
2017-04-18T04:42:11.299Z,1016.61
2017-04-18T04:42:51.826Z,1016.63
2017-04-18T04:43:32.357Z,1016.63
2017-04-18T04:44:12.884Z,1016.64
2017-04-18T04:44:53.411Z,1016.64
2017-04-18T04:45:33.940Z,1016.65
2017-04-18T04:46:14.456Z,1016.67
2017-04-18T04:46:54.993Z,1016.62
2017-04-18T04:47:35.514Z,1016.7
2017-04-18T04:48:16.060Z,1016.69
2017-04-18T04:48:56.597Z,1016.71
2017-04-18T04:49:37.186Z,1016.7
2017-04-18T04:50:17.719Z,1016.74
2017-04-18T04:50:58.266Z,1016.75
2017-04-18T04:51:38.815Z,1016.78
2017-04-18T04:52:19.321Z,1016.77
2017-04-18T04:52:59.854Z,1016.75
2017-04-18T04:53:40.387Z,1016.77
2017-04-18T04:54:20.885Z,1016.74
2017-04-18T04:55:01.420Z,1016.77
2017-04-18T04:55:41.952Z,1016.78
2017-04-18T04:56:22.486Z,1016.76
2017-04-18T04:57:03.015Z,1016.76
2017-04-18T04:57:43.536Z,1016.75
2017-04-18T04:58:24.067Z,1016.79
2017-04-18T04:59:04.599Z,1016.77
2017-04-18T04:59:45.111Z,1016.78
2017-04-18T05:00:25.631Z,1016.81
2017-04-18T05:01:06.153Z,1016.8
2017-04-18T05:01:46.666Z,1016.83
2017-04-18T05:02:27.198Z,1016.85
2017-04-18T05:03:07.729Z,1016.87
2017-04-18T05:03:48.254Z,1016.82
2017-04-18T05:04:28.778Z,1016.86
2017-04-18T05:05:09.300Z,1016.84
2017-04-18T05:05:49.818Z,1016.87
2017-04-18T05:06:30.353Z,1016.87
2017-04-18T05:07:10.882Z,1016.9
2017-04-18T05:07:51.407Z,1016.87
2017-04-18T05:08:31.945Z,1016.89
2017-04-18T05:09:12.481Z,1016.89
2017-04-18T05:09:53.006Z,1016.88
2017-04-18T05:10:33.520Z,1016.91
2017-04-18T05:11:14.047Z,1016.87
2017-04-18T05:11:54.580Z,1016.93
2017-04-18T05:12:35.111Z,1016.93
2017-04-18T05:13:15.646Z,1016.93
2017-04-18T05:13:56.157Z,1016.94
2017-04-18T05:14:36.689Z,1016.94
2017-04-18T05:15:17.206Z,1016.97
2017-04-18T05:15:57.724Z,1016.98
2017-04-18T05:16:38.244Z,1016.97
2017-04-18T05:17:18.767Z,1017.01
2017-04-18T05:17:59.282Z,1016.96
2017-04-18T05:18:39.789Z,1016.97
2017-04-18T05:19:20.332Z,1017.02
2017-04-18T05:20:00.870Z,1017.01
2017-04-18T05:20:41.373Z,1017.03
2017-04-18T05:21:21.896Z,1017.02
2017-04-18T05:22:02.411Z,1017.03
2017-04-18T05:22:42.919Z,1017.06
2017-04-18T05:23:23.443Z,1017.06
2017-04-18T05:24:03.983Z,1017.08
2017-04-18T05:24:44.508Z,1017.1
2017-04-18T05:25:25.036Z,1017.13
2017-04-18T05:26:05.561Z,1017.1
2017-04-18T05:26:46.093Z,1017.12
2017-04-18T05:27:26.645Z,1017.13
2017-04-18T05:28:07.158Z,1017.16
2017-04-18T05:28:47.685Z,1017.12
2017-04-18T05:29:28.210Z,1017.15
2017-04-18T05:30:08.750Z,1017.18
2017-04-18T05:30:49.278Z,1017.19
2017-04-18T05:31:29.782Z,1017.16
2017-04-18T05:32:10.301Z,1017.19
2017-04-18T05:32:50.829Z,1017.21
2017-04-18T05:33:31.362Z,1017.2
2017-04-18T05:34:11.880Z,1017.19
2017-04-18T05:34:52.406Z,1017.23
2017-04-18T05:35:32.942Z,1017.19
2017-04-18T05:36:13.453Z,1017.16
2017-04-18T05:36:53.985Z,1017.2
2017-04-18T05:37:34.501Z,1017.16
2017-04-18T05:38:15.048Z,1017.19
2017-04-18T05:38:55.597Z,1017.2
2017-04-18T05:39:36.144Z,1017.22
2017-04-18T05:40:16.690Z,1017.21
2017-04-18T05:40:57.219Z,1017.22
2017-04-18T05:41:37.744Z,1017.24
2017-04-18T05:42:18.277Z,1017.23
2017-04-18T05:42:58.807Z,1017.23
2017-04-18T05:43:39.337Z,1017.22
2017-04-18T05:44:19.878Z,1017.24
2017-04-18T05:45:00.413Z,1017.24
2017-04-18T05:45:40.938Z,1017.27
2017-04-18T05:46:21.452Z,1017.29
2017-04-18T05:47:01.987Z,1017.3
2017-04-18T05:47:42.513Z,1017.29
2017-04-18T05:48:23.045Z,1017.32
2017-04-18T05:49:03.588Z,1017.31
2017-04-18T05:49:44.083Z,1017.36
2017-04-18T05:50:24.588Z,1017.33
2017-04-18T05:51:05.112Z,1017.42
2017-04-18T05:51:45.731Z,1017.36
2017-04-18T05:52:26.521Z,1017.39
2017-04-18T05:53:07.129Z,1017.38
2017-04-18T05:53:47.700Z,1017.4
2017-04-18T05:54:28.149Z,1017.41
2017-04-18T05:55:08.674Z,1017.41
2017-04-18T05:55:49.174Z,1017.38
2017-04-18T05:56:29.696Z,1017.4
2017-04-18T05:57:10.264Z,1017.38
2017-04-18T05:57:50.757Z,1017.43
2017-04-18T05:58:31.375Z,1017.42
2017-04-18T05:59:11.857Z,1017.45
2017-04-18T05:59:52.447Z,1017.5
2017-04-18T06:00:32.965Z,1017.43
2017-04-18T06:01:13.597Z,1017.45
2017-04-18T06:01:54.175Z,1017.44
2017-04-18T06:02:34.741Z,1017.49
2017-04-18T06:03:15.366Z,1017.51
2017-04-18T06:03:55.826Z,1017.5
2017-04-18T06:04:36.424Z,1017.48
2017-04-18T06:05:16.965Z,1017.52
2017-04-18T06:05:57.633Z,1017.49
2017-04-18T06:06:38.146Z,1017.51
2017-04-18T06:07:18.733Z,1017.55
2017-04-18T06:07:59.392Z,1017.51
2017-04-18T06:08:40.027Z,1017.54
2017-04-18T06:09:20.625Z,1017.5
2017-04-18T06:10:01.264Z,1017.56
2017-04-18T06:10:41.930Z,1017.57
2017-04-18T06:11:22.597Z,1017.54
2017-04-18T06:12:03.175Z,1017.58
2017-04-18T06:12:43.730Z,1017.61
2017-04-18T06:13:24.249Z,1017.55
2017-04-18T06:14:04.881Z,1017.58
2017-04-18T06:14:45.398Z,1017.58
2017-04-18T06:15:26.097Z,1017.64
2017-04-18T06:16:06.745Z,1017.65
2017-04-18T06:16:47.244Z,1017.63
2017-04-18T06:17:27.780Z,1017.61
2017-04-18T06:18:08.497Z,1017.62
2017-04-18T06:18:49.194Z,1017.63
2017-04-18T06:19:29.846Z,1017.67
2017-04-18T06:20:10.681Z,1017.68
2017-04-18T06:20:51.410Z,1017.7
2017-04-18T06:21:32.121Z,1017.67
2017-04-18T06:22:12.821Z,1017.71
2017-04-18T06:22:53.415Z,1017.72
2017-04-18T06:23:33.938Z,1017.71
2017-04-18T06:24:14.642Z,1017.75
2017-04-18T06:24:55.189Z,1017.75
2017-04-18T06:25:35.662Z,1017.77
2017-04-18T06:26:16.402Z,1017.7
2017-04-18T06:26:56.924Z,1017.7
2017-04-18T06:27:37.594Z,1017.74
2017-04-18T06:28:18.275Z,1017.72
2017-04-18T06:28:59.070Z,1017.76
2017-04-18T06:29:39.599Z,1017.72
2017-04-18T06:30:20.420Z,1017.74
2017-04-18T06:31:01.067Z,1017.77
2017-04-18T06:31:41.728Z,1017.8
2017-04-18T06:32:22.384Z,1017.77
2017-04-18T06:33:03.078Z,1017.74
2017-04-18T06:33:43.891Z,1017.74
2017-04-18T06:34:24.681Z,1017.71
2017-04-18T06:35:05.354Z,1017.71
2017-04-18T06:35:46.159Z,1017.71
2017-04-18T06:36:26.816Z,1017.76
2017-04-18T06:37:07.554Z,1017.76
2017-04-18T06:37:48.257Z,1017.77
2017-04-18T06:38:28.947Z,1017.75
2017-04-18T06:39:09.690Z,1017.74
2017-04-18T06:39:50.457Z,1017.75
2017-04-18T06:40:31.336Z,1017.75
2017-04-18T06:41:12.026Z,1017.78
2017-04-18T06:41:52.787Z,1017.79
2017-04-18T06:42:33.462Z,1017.8
2017-04-18T06:43:14.058Z,1017.77
2017-04-18T06:43:54.650Z,1017.78
2017-04-18T06:44:35.236Z,1017.82
2017-04-18T06:45:15.903Z,1017.83
2017-04-18T06:45:56.614Z,1017.83
2017-04-18T06:46:37.239Z,1017.81
2017-04-18T06:47:17.870Z,1017.87
2017-04-18T06:47:58.524Z,1017.85
2017-04-18T06:48:39.145Z,1017.84
2017-04-18T06:49:19.807Z,1017.88
2017-04-18T06:50:00.525Z,1017.93
2017-04-18T06:50:41.126Z,1017.87
2017-04-18T06:51:21.803Z,1017.88
2017-04-18T06:52:02.496Z,1017.9
2017-04-18T06:52:43.045Z,1017.89
2017-04-18T06:53:23.596Z,1017.89
2017-04-18T06:54:04.177Z,1017.9
2017-04-18T06:54:44.740Z,1017.9
2017-04-18T06:55:25.215Z,1017.9
2017-04-18T06:56:05.779Z,1017.97
2017-04-18T06:56:46.329Z,1017.96
2017-04-18T06:57:26.890Z,1017.93
2017-04-18T06:58:07.399Z,1017.96
2017-04-18T06:58:47.926Z,1017.95
2017-04-18T06:59:28.455Z,1017.95
2017-04-18T07:00:08.992Z,1017.93
2017-04-18T07:00:49.572Z,1017.94
2017-04-18T07:01:30.100Z,1017.92
2017-04-18T07:02:10.652Z,1017.91
2017-04-18T07:02:51.174Z,1017.92
2017-04-18T07:03:31.687Z,1017.91
2017-04-18T07:04:12.203Z,1017.98
2017-04-18T07:04:52.762Z,1017.98
2017-04-18T07:05:33.270Z,1017.96
2017-04-18T07:06:13.814Z,1017.93
2017-04-18T07:06:54.341Z,1017.93
2017-04-18T07:07:34.887Z,1017.93
2017-04-18T07:08:15.387Z,1017.99
2017-04-18T07:08:55.929Z,1017.92
2017-04-18T07:09:36.453Z,1017.96
2017-04-18T07:10:17.240Z,1017.97
2017-04-18T07:10:57.968Z,1017.98
2017-04-18T07:11:38.491Z,1018
2017-04-18T07:12:19.081Z,1018.02
2017-04-18T07:12:59.653Z,1018
2017-04-18T07:13:40.280Z,1017.99
2017-04-18T07:14:20.906Z,1018.02
2017-04-18T07:15:01.510Z,1018.06
2017-04-18T07:15:42.074Z,1018.06
2017-04-18T07:16:22.702Z,1018.05
2017-04-18T07:17:03.358Z,1018.06
2017-04-18T07:17:43.951Z,1018.07
2017-04-18T07:18:24.551Z,1018.07
2017-04-18T07:19:05.190Z,1018.1
2017-04-18T07:19:45.724Z,1018.11
2017-04-18T07:20:26.329Z,1018.09
2017-04-18T07:21:06.916Z,1018.12
2017-04-18T07:21:47.512Z,1018.07
2017-04-18T07:22:28.101Z,1018.12
2017-04-18T07:23:08.866Z,1018.09
2017-04-18T07:23:49.481Z,1018.09
2017-04-18T07:24:30.038Z,1018.11
2017-04-18T07:25:10.626Z,1018.1
2017-04-18T07:25:51.199Z,1018.11
2017-04-18T07:26:31.758Z,1018.07
2017-04-18T07:27:12.434Z,1018.11
2017-04-18T07:27:52.965Z,1018.1
2017-04-18T07:28:33.470Z,1018.05
2017-04-18T07:29:13.989Z,1018.09
2017-04-18T07:29:54.526Z,1018.07
2017-04-18T07:30:35.065Z,1018.06
2017-04-18T07:31:15.588Z,1018.11
2017-04-18T07:31:56.135Z,1018.1
2017-04-18T07:32:36.621Z,1018.11
2017-04-18T07:33:17.128Z,1018.16
2017-04-18T07:33:57.656Z,1018.12
2017-04-18T07:34:38.190Z,1018.11
2017-04-18T07:35:18.738Z,1018.09
2017-04-18T07:35:59.267Z,1018.11
2017-04-18T07:36:39.784Z,1018.15
2017-04-18T07:37:20.317Z,1018.12
2017-04-18T07:38:00.872Z,1018.16
2017-04-18T07:38:41.378Z,1018.13
2017-04-18T07:39:21.886Z,1018.22
2017-04-18T07:40:02.416Z,1018.16
2017-04-18T07:40:42.924Z,1018.23
2017-04-18T07:41:23.431Z,1018.12
2017-04-18T07:42:03.968Z,1018.19
2017-04-18T07:42:44.506Z,1018.12
2017-04-18T07:43:25.017Z,1018.21
2017-04-18T07:44:05.538Z,1018.2
2017-04-18T07:44:46.052Z,1018.2
2017-04-18T07:45:26.583Z,1018.22
2017-04-18T07:46:07.100Z,1018.26
2017-04-18T07:46:47.618Z,1018.16
2017-04-18T07:47:28.152Z,1018.21
2017-04-18T07:48:08.672Z,1018.2
2017-04-18T07:48:49.173Z,1018.25
2017-04-18T07:49:29.696Z,1018.27
2017-04-18T07:50:10.215Z,1018.23
2017-04-18T07:50:50.734Z,1018.25
2017-04-18T07:51:31.260Z,1018.25
2017-04-18T07:52:11.816Z,1018.28
2017-04-18T07:52:52.339Z,1018.28
2017-04-18T07:53:32.827Z,1018.27
2017-04-18T07:54:13.382Z,1018.27
2017-04-18T07:54:53.936Z,1018.28
2017-04-18T07:55:34.462Z,1018.25
2017-04-18T07:56:14.978Z,1018.29
2017-04-18T07:56:55.500Z,1018.24
2017-04-18T07:57:36.027Z,1018.26
2017-04-18T07:58:16.567Z,1018.23
2017-04-18T07:58:57.106Z,1018.24
2017-04-18T07:59:37.625Z,1018.2
2017-04-18T08:00:18.137Z,1018.24
2017-04-18T08:00:58.676Z,1018.24
2017-04-18T08:01:39.241Z,1018.21
2017-04-18T08:02:19.732Z,1018.24
2017-04-18T08:03:00.250Z,1018.18
2017-04-18T08:03:40.767Z,1018.18
2017-04-18T08:04:21.297Z,1018.18
2017-04-18T08:05:01.823Z,1018.22
2017-04-18T08:05:42.345Z,1018.16
2017-04-18T08:06:22.872Z,1018.22
2017-04-18T08:07:03.411Z,1018.16
2017-04-18T08:07:43.944Z,1018.19
2017-04-18T08:08:24.482Z,1018.17
2017-04-18T08:09:05.006Z,1018.18
2017-04-18T08:09:45.530Z,1018.26
2017-04-18T08:10:26.063Z,1018.23
2017-04-18T08:11:06.596Z,1018.26
2017-04-18T08:11:47.116Z,1018.24
2017-04-18T08:12:27.658Z,1018.17